sensor_id;sensor_type;location;lat;lon;timestamp;P1;durP1;ratioP1;P2;durP2;ratioP2
3918;SDS011;1974;48.670;8.994;2023-04-08T00:01:11;4.83;;;1.93;;
3918;SDS011;1974;48.670;8.994;2023-04-08T00:03:38;1.50;;;0.63;;
3918;SDS011;1974;48.670;8.994;2023-04-08T00:06:04;3.43;;;2.33;;
3918;SDS011;1974;48.670;8.994;2023-04-08T00:08:32;1.50;;;1.33;;
3918;SDS011;1974;48.670;8.994;2023-04-08T00:11:00;3.43;;;1.90;;
3918;SDS011;1974;48.670;8.994;2023-04-08T00:13:27;4.80;;;2.10;;
3918;SDS011;1974;48.670;8.994;2023-04-08T00:15:53;3.80;;;2.03;;
3918;SDS011;1974;48.670;8.994;2023-04-08T00:18:20;5.00;;;2.63;;
3918;SDS011;1974;48.670;8.994;2023-04-08T00:20:47;2.83;;;1.40;;
3918;SDS011;1974;48.670;8.994;2023-04-08T00:23:14;1.60;;;1.10;;
3918;SDS011;1974;48.670;8.994;2023-04-08T00:25:40;2.67;;;1.27;;
3918;SDS011;1974;48.670;8.994;2023-04-08T00:28:09;1.13;;;1.03;;
3918;SDS011;1974;48.670;8.994;2023-04-08T00:30:35;3.10;;;1.30;;
3918;SDS011;1974;48.670;8.994;2023-04-08T00:33:02;6.30;;;1.73;;
3918;SDS011;1974;48.670;8.994;2023-04-08T00:35:29;1.53;;;1.43;;
3918;SDS011;1974;48.670;8.994;2023-04-08T00:37:56;2.50;;;0.90;;
3918;SDS011;1974;48.670;8.994;2023-04-08T00:40:22;5.60;;;2.23;;
3918;SDS011;1974;48.670;8.994;2023-04-08T00:42:49;3.50;;;1.43;;
3918;SDS011;1974;48.670;8.994;2023-04-08T00:45:17;3.23;;;1.37;;
3918;SDS011;1974;48.670;8.994;2023-04-08T00:47:44;7.07;;;2.67;;
3918;SDS011;1974;48.670;8.994;2023-04-08T00:50:16;1.63;;;0.77;;
3918;SDS011;1974;48.670;8.994;2023-04-08T00:52:43;8.30;;;2.27;;
3918;SDS011;1974;48.670;8.994;2023-04-08T00:55:10;2.20;;;1.33;;
3918;SDS011;1974;48.670;8.994;2023-04-08T00:57:37;3.20;;;1.90;;
3918;SDS011;1974;48.670;8.994;2023-04-08T01:00:04;2.17;;;1.33;;
3918;SDS011;1974;48.670;8.994;2023-04-08T01:02:35;3.47;;;1.60;;
3918;SDS011;1974;48.670;8.994;2023-04-08T01:05:10;2.20;;;1.90;;
3918;SDS011;1974;48.670;8.994;2023-04-08T01:07:42;2.10;;;1.47;;
3918;SDS011;1974;48.670;8.994;2023-04-08T01:10:13;1.20;;;1.10;;
3918;SDS011;1974;48.670;8.994;2023-04-08T01:12:42;3.83;;;1.13;;
3918;SDS011;1974;48.670;8.994;2023-04-08T01:15:13;1.83;;;1.73;;
3918;SDS011;1974;48.670;8.994;2023-04-08T01:17:42;2.10;;;1.27;;
3918;SDS011;1974;48.670;8.994;2023-04-08T01:20:10;2.93;;;1.40;;
3918;SDS011;1974;48.670;8.994;2023-04-08T01:22:43;0.90;;;0.70;;
3918;SDS011;1974;48.670;8.994;2023-04-08T01:25:21;3.90;;;2.10;;
3918;SDS011;1974;48.670;8.994;2023-04-08T01:27:52;2.93;;;2.53;;
3918;SDS011;1974;48.670;8.994;2023-04-08T01:30:21;3.50;;;2.23;;
3918;SDS011;1974;48.670;8.994;2023-04-08T01:32:50;3.27;;;1.30;;
3918;SDS011;1974;48.670;8.994;2023-04-08T01:35:18;2.00;;;0.97;;
3918;SDS011;1974;48.670;8.994;2023-04-08T01:37:45;1.67;;;1.30;;
3918;SDS011;1974;48.670;8.994;2023-04-08T01:40:15;0.80;;;0.80;;
3918;SDS011;1974;48.670;8.994;2023-04-08T01:42:43;1.43;;;1.33;;
3918;SDS011;1974;48.670;8.994;2023-04-08T01:45:14;2.10;;;1.03;;
3918;SDS011;1974;48.670;8.994;2023-04-08T01:47:42;0.93;;;0.80;;
3918;SDS011;1974;48.670;8.994;2023-04-08T01:50:11;1.50;;;1.03;;
3918;SDS011;1974;48.670;8.994;2023-04-08T01:52:39;4.87;;;1.67;;
3918;SDS011;1974;48.670;8.994;2023-04-08T01:55:08;1.20;;;1.10;;
3918;SDS011;1974;48.670;8.994;2023-04-08T01:57:36;2.20;;;0.83;;
3918;SDS011;1974;48.670;8.994;2023-04-08T02:00:05;2.70;;;1.87;;
3918;SDS011;1974;48.670;8.994;2023-04-08T02:02:36;2.70;;;1.27;;
3918;SDS011;1974;48.670;8.994;2023-04-08T02:05:04;2.10;;;1.40;;
3918;SDS011;1974;48.670;8.994;2023-04-08T02:07:31;4.73;;;1.63;;
3918;SDS011;1974;48.670;8.994;2023-04-08T02:09:58;3.00;;;1.20;;
3918;SDS011;1974;48.670;8.994;2023-04-08T02:12:24;3.23;;;1.40;;
3918;SDS011;1974;48.670;8.994;2023-04-08T02:14:53;2.83;;;1.90;;
3918;SDS011;1974;48.670;8.994;2023-04-08T02:17:24;1.33;;;1.13;;
3918;SDS011;1974;48.670;8.994;2023-04-08T02:19:59;1.57;;;1.10;;
3918;SDS011;1974;48.670;8.994;2023-04-08T02:22:35;1.63;;;1.30;;
3918;SDS011;1974;48.670;8.994;2023-04-08T02:25:07;3.03;;;1.03;;
3918;SDS011;1974;48.670;8.994;2023-04-08T02:27:36;1.60;;;1.10;;
3918;SDS011;1974;48.670;8.994;2023-04-08T02:30:06;2.30;;;2.07;;
3918;SDS011;1974;48.670;8.994;2023-04-08T02:32:35;5.10;;;2.57;;
3918;SDS011;1974;48.670;8.994;2023-04-08T02:35:04;1.93;;;1.33;;
3918;SDS011;1974;48.670;8.994;2023-04-08T02:37:32;1.20;;;1.10;;
3918;SDS011;1974;48.670;8.994;2023-04-08T02:39:59;3.63;;;2.10;;
3918;SDS011;1974;48.670;8.994;2023-04-08T02:42:26;2.43;;;1.40;;
3918;SDS011;1974;48.670;8.994;2023-04-08T02:44:52;1.70;;;1.60;;
3918;SDS011;1974;48.670;8.994;2023-04-08T02:47:19;7.13;;;2.50;;
3918;SDS011;1974;48.670;8.994;2023-04-08T02:49:46;1.87;;;1.67;;
3918;SDS011;1974;48.670;8.994;2023-04-08T02:52:17;3.87;;;1.93;;
3918;SDS011;1974;48.670;8.994;2023-04-08T02:54:44;6.27;;;2.10;;
3918;SDS011;1974;48.670;8.994;2023-04-08T02:57:11;1.23;;;1.13;;
3918;SDS011;1974;48.670;8.994;2023-04-08T02:59:38;1.40;;;1.30;;
3918;SDS011;1974;48.670;8.994;2023-04-08T03:02:05;5.30;;;2.43;;
3918;SDS011;1974;48.670;8.994;2023-04-08T03:04:32;2.37;;;1.23;;
3918;SDS011;1974;48.670;8.994;2023-04-08T03:06:58;3.07;;;1.67;;
3918;SDS011;1974;48.670;8.994;2023-04-08T03:09:27;4.80;;;1.53;;
3918;SDS011;1974;48.670;8.994;2023-04-08T03:11:53;3.27;;;1.60;;
3918;SDS011;1974;48.670;8.994;2023-04-08T03:14:20;6.57;;;3.23;;
3918;SDS011;1974;48.670;8.994;2023-04-08T03:16:47;4.33;;;1.77;;
3918;SDS011;1974;48.670;8.994;2023-04-08T03:19:13;4.40;;;2.10;;
3918;SDS011;1974;48.670;8.994;2023-04-08T03:21:40;1.90;;;1.53;;
3918;SDS011;1974;48.670;8.994;2023-04-08T03:24:07;1.67;;;1.27;;
3918;SDS011;1974;48.670;8.994;2023-04-08T03:26:35;5.43;;;2.30;;
3918;SDS011;1974;48.670;8.994;2023-04-08T03:29:02;4.40;;;1.50;;
3918;SDS011;1974;48.670;8.994;2023-04-08T03:31:29;2.40;;;1.07;;
3918;SDS011;1974;48.670;8.994;2023-04-08T03:33:56;3.60;;;1.40;;
3918;SDS011;1974;48.670;8.994;2023-04-08T03:36:22;3.73;;;1.70;;
3918;SDS011;1974;48.670;8.994;2023-04-08T03:38:50;2.70;;;1.50;;
3918;SDS011;1974;48.670;8.994;2023-04-08T03:41:17;7.43;;;1.87;;
3918;SDS011;1974;48.670;8.994;2023-04-08T03:43:45;2.57;;;1.43;;
3918;SDS011;1974;48.670;8.994;2023-04-08T03:46:12;3.33;;;1.70;;
3918;SDS011;1974;48.670;8.994;2023-04-08T03:48:38;0.80;;;0.80;;
3918;SDS011;1974;48.670;8.994;2023-04-08T03:51:05;4.40;;;1.63;;
3918;SDS011;1974;48.670;8.994;2023-04-08T03:53:32;2.50;;;2.07;;
3918;SDS011;1974;48.670;8.994;2023-04-08T03:55:59;3.10;;;1.70;;
3918;SDS011;1974;48.670;8.994;2023-04-08T03:58:27;5.03;;;2.60;;
3918;SDS011;1974;48.670;8.994;2023-04-08T04:00:55;4.73;;;1.50;;
3918;SDS011;1974;48.670;8.994;2023-04-08T04:03:22;3.70;;;1.60;;
3918;SDS011;1974;48.670;8.994;2023-04-08T04:05:49;3.07;;;1.00;;
3918;SDS011;1974;48.670;8.994;2023-04-08T04:08:16;1.80;;;0.90;;
3918;SDS011;1974;48.670;8.994;2023-04-08T04:10:42;1.33;;;1.23;;
3918;SDS011;1974;48.670;8.994;2023-04-08T04:13:09;3.73;;;1.73;;
3918;SDS011;1974;48.670;8.994;2023-04-08T04:15:37;1.93;;;1.60;;
3918;SDS011;1974;48.670;8.994;2023-04-08T04:18:05;3.10;;;1.90;;
3918;SDS011;1974;48.670;8.994;2023-04-08T04:20:32;13.60;;;1.77;;
3918;SDS011;1974;48.670;8.994;2023-04-08T04:22:58;3.53;;;1.37;;
3918;SDS011;1974;48.670;8.994;2023-04-08T04:25:25;14.80;;;1.77;;
3918;SDS011;1974;48.670;8.994;2023-04-08T04:27:52;2.80;;;2.60;;
3918;SDS011;1974;48.670;8.994;2023-04-08T04:30:18;1.73;;;1.53;;
3918;SDS011;1974;48.670;8.994;2023-04-08T04:32:45;7.33;;;2.77;;
3918;SDS011;1974;48.670;8.994;2023-04-08T04:35:13;0.60;;;0.60;;
3918;SDS011;1974;48.670;8.994;2023-04-08T04:37:40;2.53;;;1.23;;
3918;SDS011;1974;48.670;8.994;2023-04-08T04:40:07;1.00;;;1.00;;
3918;SDS011;1974;48.670;8.994;2023-04-08T04:42:34;5.33;;;2.10;;
3918;SDS011;1974;48.670;8.994;2023-04-08T04:45:01;4.73;;;1.60;;
3918;SDS011;1974;48.670;8.994;2023-04-08T04:47:28;2.23;;;1.00;;
3918;SDS011;1974;48.670;8.994;2023-04-08T04:49:56;3.30;;;1.60;;
3918;SDS011;1974;48.670;8.994;2023-04-08T04:52:24;3.60;;;1.60;;
3918;SDS011;1974;48.670;8.994;2023-04-08T04:54:51;1.70;;;1.00;;
3918;SDS011;1974;48.670;8.994;2023-04-08T04:57:17;2.20;;;1.57;;
3918;SDS011;1974;48.670;8.994;2023-04-08T04:59:44;5.90;;;1.40;;
3918;SDS011;1974;48.670;8.994;2023-04-08T05:02:11;3.53;;;1.30;;
3918;SDS011;1974;48.670;8.994;2023-04-08T05:04:37;2.30;;;1.70;;
3918;SDS011;1974;48.670;8.994;2023-04-08T05:07:04;2.33;;;0.90;;
3918;SDS011;1974;48.670;8.994;2023-04-08T05:09:32;1.73;;;1.37;;
3918;SDS011;1974;48.670;8.994;2023-04-08T05:11:59;2.70;;;1.23;;
3918;SDS011;1974;48.670;8.994;2023-04-08T05:14:27;3.37;;;1.20;;
3918;SDS011;1974;48.670;8.994;2023-04-08T05:16:54;3.60;;;1.43;;
3918;SDS011;1974;48.670;8.994;2023-04-08T05:19:21;2.77;;;1.47;;
3918;SDS011;1974;48.670;8.994;2023-04-08T05:21:48;2.63;;;1.57;;
3918;SDS011;1974;48.670;8.994;2023-04-08T05:24:14;5.90;;;2.07;;
3918;SDS011;1974;48.670;8.994;2023-04-08T05:26:42;1.57;;;1.03;;
3918;SDS011;1974;48.670;8.994;2023-04-08T05:29:09;1.60;;;1.50;;
3918;SDS011;1974;48.670;8.994;2023-04-08T05:31:36;2.90;;;1.70;;
3918;SDS011;1974;48.670;8.994;2023-04-08T05:34:02;1.33;;;1.20;;
3918;SDS011;1974;48.670;8.994;2023-04-08T05:36:29;2.60;;;1.73;;
3918;SDS011;1974;48.670;8.994;2023-04-08T05:38:56;2.03;;;1.00;;
3918;SDS011;1974;48.670;8.994;2023-04-08T05:41:23;2.33;;;1.23;;
3918;SDS011;1974;48.670;8.994;2023-04-08T05:43:51;3.53;;;1.93;;
3918;SDS011;1974;48.670;8.994;2023-04-08T05:46:18;5.60;;;1.73;;
3918;SDS011;1974;48.670;8.994;2023-04-08T05:48:44;1.73;;;1.27;;
3918;SDS011;1974;48.670;8.994;2023-04-08T05:51:14;3.60;;;1.67;;
3918;SDS011;1974;48.670;8.994;2023-04-08T05:53:41;2.73;;;1.60;;
3918;SDS011;1974;48.670;8.994;2023-04-08T05:56:10;5.03;;;1.77;;
3918;SDS011;1974;48.670;8.994;2023-04-08T05:58:36;4.93;;;2.70;;
3918;SDS011;1974;48.670;8.994;2023-04-08T06:01:04;3.53;;;1.43;;
3918;SDS011;1974;48.670;8.994;2023-04-08T06:03:31;5.13;;;1.47;;
3918;SDS011;1974;48.670;8.994;2023-04-08T06:05:58;1.30;;;1.20;;
3918;SDS011;1974;48.670;8.994;2023-04-08T06:08:24;4.10;;;2.37;;
3918;SDS011;1974;48.670;8.994;2023-04-08T06:10:51;3.50;;;1.90;;
3918;SDS011;1974;48.670;8.994;2023-04-08T06:13:18;9.30;;;2.73;;
3918;SDS011;1974;48.670;8.994;2023-04-08T06:15:45;4.40;;;2.00;;
3918;SDS011;1974;48.670;8.994;2023-04-08T06:18:15;6.13;;;2.50;;
3918;SDS011;1974;48.670;8.994;2023-04-08T06:20:41;4.57;;;1.90;;
3918;SDS011;1974;48.670;8.994;2023-04-08T06:23:08;3.07;;;1.23;;
3918;SDS011;1974;48.670;8.994;2023-04-08T06:25:35;4.17;;;2.07;;
3918;SDS011;1974;48.670;8.994;2023-04-08T06:28:02;3.33;;;1.67;;
3918;SDS011;1974;48.670;8.994;2023-04-08T06:30:28;4.87;;;2.43;;
3918;SDS011;1974;48.670;8.994;2023-04-08T06:32:55;4.80;;;2.50;;
3918;SDS011;1974;48.670;8.994;2023-04-08T06:35:23;1.90;;;1.03;;
3918;SDS011;1974;48.670;8.994;2023-04-08T06:37:50;2.03;;;1.30;;
3918;SDS011;1974;48.670;8.994;2023-04-08T06:40:17;2.40;;;1.60;;
3918;SDS011;1974;48.670;8.994;2023-04-08T06:42:43;2.50;;;1.13;;
3918;SDS011;1974;48.670;8.994;2023-04-08T06:45:10;1.87;;;1.03;;
3918;SDS011;1974;48.670;8.994;2023-04-08T06:47:37;2.63;;;1.13;;
3918;SDS011;1974;48.670;8.994;2023-04-08T06:50:04;2.60;;;1.63;;
3918;SDS011;1974;48.670;8.994;2023-04-08T06:52:32;1.43;;;1.33;;
3918;SDS011;1974;48.670;8.994;2023-04-08T06:54:59;2.93;;;1.50;;
3918;SDS011;1974;48.670;8.994;2023-04-08T06:57:26;1.07;;;0.90;;
3918;SDS011;1974;48.670;8.994;2023-04-08T06:59:52;1.60;;;1.23;;
3918;SDS011;1974;48.670;8.994;2023-04-08T07:02:20;3.83;;;2.53;;
3918;SDS011;1974;48.670;8.994;2023-04-08T07:04:47;2.53;;;1.23;;
3918;SDS011;1974;48.670;8.994;2023-04-08T07:07:14;4.57;;;1.80;;
3918;SDS011;1974;48.670;8.994;2023-04-08T07:09:42;1.23;;;1.23;;
3918;SDS011;1974;48.670;8.994;2023-04-08T07:12:10;3.37;;;1.20;;
3918;SDS011;1974;48.670;8.994;2023-04-08T07:14:36;2.27;;;1.47;;
3918;SDS011;1974;48.670;8.994;2023-04-08T07:17:03;2.03;;;1.40;;
3918;SDS011;1974;48.670;8.994;2023-04-08T07:19:30;3.00;;;1.43;;
3918;SDS011;1974;48.670;8.994;2023-04-08T07:21:56;0.87;;;0.87;;
3918;SDS011;1974;48.670;8.994;2023-04-08T07:24:23;2.93;;;1.13;;
3918;SDS011;1974;48.670;8.994;2023-04-08T07:26:51;3.07;;;1.47;;
3918;SDS011;1974;48.670;8.994;2023-04-08T07:29:19;4.63;;;2.00;;
3918;SDS011;1974;48.670;8.994;2023-04-08T07:31:46;1.20;;;0.80;;
3918;SDS011;1974;48.670;8.994;2023-04-08T07:34:12;1.93;;;1.30;;
3918;SDS011;1974;48.670;8.994;2023-04-08T07:36:39;3.40;;;1.70;;
3918;SDS011;1974;48.670;8.994;2023-04-08T07:39:06;2.53;;;1.30;;
3918;SDS011;1974;48.670;8.994;2023-04-08T07:41:32;0.73;;;0.73;;
3918;SDS011;1974;48.670;8.994;2023-04-08T07:44:00;2.60;;;1.90;;
3918;SDS011;1974;48.670;8.994;2023-04-08T07:46:27;4.50;;;1.70;;
3918;SDS011;1974;48.670;8.994;2023-04-08T07:48:55;1.17;;;0.93;;
3918;SDS011;1974;48.670;8.994;2023-04-08T07:51:22;2.30;;;1.37;;
3918;SDS011;1974;48.670;8.994;2023-04-08T07:53:48;2.30;;;1.07;;
3918;SDS011;1974;48.670;8.994;2023-04-08T07:56:15;2.03;;;1.10;;
3918;SDS011;1974;48.670;8.994;2023-04-08T07:58:43;2.73;;;1.40;;
3918;SDS011;1974;48.670;8.994;2023-04-08T08:01:17;3.20;;;1.30;;
3918;SDS011;1974;48.670;8.994;2023-04-08T08:03:45;3.10;;;1.30;;
3918;SDS011;1974;48.670;8.994;2023-04-08T08:06:12;0.93;;;0.83;;
3918;SDS011;1974;48.670;8.994;2023-04-08T08:08:39;1.60;;;1.13;;
3918;SDS011;1974;48.670;8.994;2023-04-08T08:11:06;1.83;;;1.13;;
3918;SDS011;1974;48.670;8.994;2023-04-08T08:13:32;1.43;;;1.33;;
3918;SDS011;1974;48.670;8.994;2023-04-08T08:15:59;2.80;;;1.00;;
3918;SDS011;1974;48.670;8.994;2023-04-08T08:18:27;1.17;;;0.90;;
3918;SDS011;1974;48.670;8.994;2023-04-08T08:20:54;2.83;;;1.10;;
3918;SDS011;1974;48.670;8.994;2023-04-08T08:23:20;2.23;;;1.63;;
3918;SDS011;1974;48.670;8.994;2023-04-08T08:25:47;2.73;;;1.37;;
3918;SDS011;1974;48.670;8.994;2023-04-08T08:28:14;4.10;;;1.77;;
3918;SDS011;1974;48.670;8.994;2023-04-08T08:30:40;1.80;;;1.23;;
3918;SDS011;1974;48.670;8.994;2023-04-08T08:33:07;1.63;;;1.30;;
3918;SDS011;1974;48.670;8.994;2023-04-08T08:35:35;1.53;;;1.43;;
3918;SDS011;1974;48.670;8.994;2023-04-08T08:38:03;2.93;;;2.03;;
3918;SDS011;1974;48.670;8.994;2023-04-08T08:40:30;4.33;;;1.90;;
3918;SDS011;1974;48.670;8.994;2023-04-08T08:42:57;3.27;;;1.73;;
3918;SDS011;1974;48.670;8.994;2023-04-08T08:45:25;2.97;;;2.00;;
3918;SDS011;1974;48.670;8.994;2023-04-08T08:47:52;2.10;;;1.47;;
3918;SDS011;1974;48.670;8.994;2023-04-08T08:50:19;4.47;;;2.23;;
3918;SDS011;1974;48.670;8.994;2023-04-08T08:52:50;2.43;;;1.90;;
3918;SDS011;1974;48.670;8.994;2023-04-08T08:55:18;2.30;;;1.80;;
3918;SDS011;1974;48.670;8.994;2023-04-08T08:57:45;3.33;;;1.97;;
3918;SDS011;1974;48.670;8.994;2023-04-08T09:00:14;3.47;;;1.73;;
3918;SDS011;1974;48.670;8.994;2023-04-08T09:02:41;3.17;;;2.00;;
3918;SDS011;1974;48.670;8.994;2023-04-08T09:05:07;5.33;;;2.40;;
3918;SDS011;1974;48.670;8.994;2023-04-08T09:07:35;4.33;;;2.10;;
3918;SDS011;1974;48.670;8.994;2023-04-08T09:10:06;2.03;;;1.90;;
3918;SDS011;1974;48.670;8.994;2023-04-08T09:12:34;3.27;;;2.53;;
3918;SDS011;1974;48.670;8.994;2023-04-08T09:15:08;2.60;;;1.90;;
3918;SDS011;1974;48.670;8.994;2023-04-08T09:17:36;3.90;;;2.10;;
3918;SDS011;1974;48.670;8.994;2023-04-08T09:20:06;4.33;;;2.50;;
3918;SDS011;1974;48.670;8.994;2023-04-08T09:22:49;3.67;;;2.60;;
3918;SDS011;1974;48.670;8.994;2023-04-08T09:25:23;4.80;;;2.23;;
3918;SDS011;1974;48.670;8.994;2023-04-08T09:27:50;8.50;;;3.40;;
3918;SDS011;1974;48.670;8.994;2023-04-08T09:30:18;5.57;;;2.40;;
3918;SDS011;1974;48.670;8.994;2023-04-08T09:32:46;7.57;;;3.20;;
3918;SDS011;1974;48.670;8.994;2023-04-08T09:35:13;7.40;;;2.70;;
3918;SDS011;1974;48.670;8.994;2023-04-08T09:37:41;16.70;;;2.30;;
3918;SDS011;1974;48.670;8.994;2023-04-08T09:40:08;5.70;;;3.43;;
3918;SDS011;1974;48.670;8.994;2023-04-08T09:42:39;7.13;;;3.40;;
3918;SDS011;1974;48.670;8.994;2023-04-08T09:45:09;4.67;;;2.20;;
3918;SDS011;1974;48.670;8.994;2023-04-08T09:47:39;4.27;;;3.20;;
3918;SDS011;1974;48.670;8.994;2023-04-08T09:50:13;4.80;;;3.47;;
3918;SDS011;1974;48.670;8.994;2023-04-08T09:52:43;6.90;;;3.13;;
3918;SDS011;1974;48.670;8.994;2023-04-08T09:55:15;6.00;;;3.30;;
3918;SDS011;1974;48.670;8.994;2023-04-08T09:57:50;4.90;;;3.60;;
3918;SDS011;1974;48.670;8.994;2023-04-08T10:00:21;6.67;;;3.30;;
3918;SDS011;1974;48.670;8.994;2023-04-08T10:02:53;4.77;;;3.73;;
3918;SDS011;1974;48.670;8.994;2023-04-08T10:05:21;5.30;;;2.50;;
3918;SDS011;1974;48.670;8.994;2023-04-08T10:07:49;5.03;;;3.20;;
3918;SDS011;1974;48.670;8.994;2023-04-08T10:10:17;3.60;;;2.63;;
3918;SDS011;1974;48.670;8.994;2023-04-08T10:12:44;6.40;;;3.23;;
3918;SDS011;1974;48.670;8.994;2023-04-08T10:15:23;5.43;;;3.93;;
3918;SDS011;1974;48.670;8.994;2023-04-08T10:17:50;4.13;;;2.80;;
3918;SDS011;1974;48.670;8.994;2023-04-08T10:23:09;4.90;;;3.23;;
3918;SDS011;1974;48.670;8.994;2023-04-08T10:25:37;3.37;;;2.53;;
3918;SDS011;1974;48.670;8.994;2023-04-08T10:30:52;9.33;;;3.30;;
3918;SDS011;1974;48.670;8.994;2023-04-08T10:33:20;6.23;;;3.97;;
3918;SDS011;1974;48.670;8.994;2023-04-08T10:35:51;7.80;;;3.50;;
3918;SDS011;1974;48.670;8.994;2023-04-08T10:38:20;4.87;;;3.07;;
3918;SDS011;1974;48.670;8.994;2023-04-08T10:40:47;3.90;;;3.17;;
3918;SDS011;1974;48.670;8.994;2023-04-08T10:43:15;5.00;;;3.50;;
3918;SDS011;1974;48.670;8.994;2023-04-08T10:45:42;6.03;;;3.40;;
3918;SDS011;1974;48.670;8.994;2023-04-08T10:48:12;5.87;;;2.63;;
3918;SDS011;1974;48.670;8.994;2023-04-08T10:50:40;4.60;;;3.13;;
3918;SDS011;1974;48.670;8.994;2023-04-08T10:53:07;7.83;;;4.10;;
3918;SDS011;1974;48.670;8.994;2023-04-08T10:55:35;5.83;;;3.57;;
3918;SDS011;1974;48.670;8.994;2023-04-08T10:58:05;4.77;;;3.37;;
3918;SDS011;1974;48.670;8.994;2023-04-08T11:00:33;4.90;;;3.17;;
3918;SDS011;1974;48.670;8.994;2023-04-08T11:03:01;3.87;;;3.30;;
3918;SDS011;1974;48.670;8.994;2023-04-08T11:05:30;7.13;;;3.90;;
3918;SDS011;1974;48.670;8.994;2023-04-08T11:07:57;12.63;;;4.17;;
3918;SDS011;1974;48.670;8.994;2023-04-08T11:10:24;4.90;;;4.37;;
3918;SDS011;1974;48.670;8.994;2023-04-08T11:12:51;3.07;;;2.80;;
3918;SDS011;1974;48.670;8.994;2023-04-08T11:15:19;5.43;;;3.30;;
3918;SDS011;1974;48.670;8.994;2023-04-08T11:17:46;9.47;;;3.23;;
3918;SDS011;1974;48.670;8.994;2023-04-08T11:20:13;4.27;;;2.80;;
3918;SDS011;1974;48.670;8.994;2023-04-08T11:22:42;8.40;;;4.97;;
3918;SDS011;1974;48.670;8.994;2023-04-08T11:25:09;5.67;;;3.20;;
3918;SDS011;1974;48.670;8.994;2023-04-08T11:27:36;7.20;;;3.57;;
3918;SDS011;1974;48.670;8.994;2023-04-08T11:30:05;9.50;;;3.30;;
3918;SDS011;1974;48.670;8.994;2023-04-08T11:32:33;4.03;;;3.40;;
3918;SDS011;1974;48.670;8.994;2023-04-08T11:35:00;5.90;;;3.20;;
3918;SDS011;1974;48.670;8.994;2023-04-08T11:37:35;3.37;;;2.97;;
3918;SDS011;1974;48.670;8.994;2023-04-08T11:40:07;4.20;;;2.87;;
3918;SDS011;1974;48.670;8.994;2023-04-08T11:42:34;2.70;;;1.90;;
3918;SDS011;1974;48.670;8.994;2023-04-08T11:45:01;4.10;;;2.60;;
3918;SDS011;1974;48.670;8.994;2023-04-08T11:47:36;3.97;;;3.00;;
3918;SDS011;1974;48.670;8.994;2023-04-08T11:50:03;8.30;;;4.20;;
3918;SDS011;1974;48.670;8.994;2023-04-08T11:52:41;4.07;;;2.97;;
3918;SDS011;1974;48.670;8.994;2023-04-08T11:55:21;4.73;;;3.50;;
3918;SDS011;1974;48.670;8.994;2023-04-08T11:57:49;3.80;;;2.37;;
3918;SDS011;1974;48.670;8.994;2023-04-08T12:00:16;5.70;;;3.90;;
3918;SDS011;1974;48.670;8.994;2023-04-08T12:02:43;4.33;;;3.07;;
3918;SDS011;1974;48.670;8.994;2023-04-08T12:05:11;7.20;;;3.47;;
3918;SDS011;1974;48.670;8.994;2023-04-08T12:07:38;2.93;;;2.53;;
3918;SDS011;1974;48.670;8.994;2023-04-08T12:10:05;4.17;;;3.07;;
3918;SDS011;1974;48.670;8.994;2023-04-08T12:12:34;5.90;;;3.57;;
3918;SDS011;1974;48.670;8.994;2023-04-08T12:15:01;5.77;;;3.30;;
3918;SDS011;1974;48.670;8.994;2023-04-08T12:17:27;3.00;;;2.37;;
3918;SDS011;1974;48.670;8.994;2023-04-08T12:19:54;6.70;;;3.20;;
3918;SDS011;1974;48.670;8.994;2023-04-08T12:22:21;6.07;;;3.33;;
3918;SDS011;1974;48.670;8.994;2023-04-08T12:24:48;7.40;;;4.70;;
3918;SDS011;1974;48.670;8.994;2023-04-08T12:27:14;6.83;;;3.57;;
3918;SDS011;1974;48.670;8.994;2023-04-08T12:29:42;4.57;;;2.90;;
3918;SDS011;1974;48.670;8.994;2023-04-08T12:32:10;4.10;;;2.23;;
3918;SDS011;1974;48.670;8.994;2023-04-08T12:34:37;7.53;;;3.60;;
3918;SDS011;1974;48.670;8.994;2023-04-08T12:37:04;4.10;;;2.40;;
3918;SDS011;1974;48.670;8.994;2023-04-08T12:39:31;7.50;;;3.90;;
3918;SDS011;1974;48.670;8.994;2023-04-08T12:41:57;2.43;;;2.17;;
3918;SDS011;1974;48.670;8.994;2023-04-08T12:44:24;4.20;;;3.40;;
3918;SDS011;1974;48.670;8.994;2023-04-08T12:46:52;5.30;;;3.30;;
3918;SDS011;1974;48.670;8.994;2023-04-08T12:49:19;2.83;;;2.50;;
3918;SDS011;1974;48.670;8.994;2023-04-08T12:51:46;5.27;;;3.27;;
3918;SDS011;1974;48.670;8.994;2023-04-08T12:54:13;3.50;;;2.73;;
3918;SDS011;1974;48.670;8.994;2023-04-08T12:56:39;4.97;;;2.87;;
3918;SDS011;1974;48.670;8.994;2023-04-08T12:59:07;4.77;;;2.93;;
3918;SDS011;1974;48.670;8.994;2023-04-08T13:01:34;3.17;;;2.47;;
3918;SDS011;1974;48.670;8.994;2023-04-08T13:04:02;7.80;;;2.60;;
3918;SDS011;1974;48.670;8.994;2023-04-08T13:06:29;3.63;;;3.00;;
3918;SDS011;1974;48.670;8.994;2023-04-08T13:08:56;4.90;;;2.83;;
3918;SDS011;1974;48.670;8.994;2023-04-08T13:11:22;4.90;;;3.80;;
3918;SDS011;1974;48.670;8.994;2023-04-08T13:13:49;3.60;;;2.70;;
3918;SDS011;1974;48.670;8.994;2023-04-08T13:16:16;4.33;;;3.53;;
3918;SDS011;1974;48.670;8.994;2023-04-08T13:18:43;4.80;;;4.40;;
3918;SDS011;1974;48.670;8.994;2023-04-08T13:21:11;3.60;;;2.80;;
3918;SDS011;1974;48.670;8.994;2023-04-08T13:23:38;9.47;;;4.73;;
3918;SDS011;1974;48.670;8.994;2023-04-08T13:26:05;4.37;;;2.47;;
3918;SDS011;1974;48.670;8.994;2023-04-08T13:28:32;4.70;;;1.70;;
3918;SDS011;1974;48.670;8.994;2023-04-08T13:30:58;8.90;;;4.47;;
3918;SDS011;1974;48.670;8.994;2023-04-08T13:33:25;5.10;;;3.47;;
3918;SDS011;1974;48.670;8.994;2023-04-08T13:35:52;3.83;;;3.43;;
3918;SDS011;1974;48.670;8.994;2023-04-08T13:38:20;5.90;;;3.70;;
3918;SDS011;1974;48.670;8.994;2023-04-08T13:40:46;4.20;;;2.60;;
3918;SDS011;1974;48.670;8.994;2023-04-08T13:43:14;5.67;;;3.17;;
3918;SDS011;1974;48.670;8.994;2023-04-08T13:45:40;5.90;;;3.40;;
3918;SDS011;1974;48.670;8.994;2023-04-08T13:48:07;7.10;;;4.10;;
3918;SDS011;1974;48.670;8.994;2023-04-08T13:50:34;7.97;;;3.30;;
3918;SDS011;1974;48.670;8.994;2023-04-08T13:53:00;4.93;;;3.40;;
3918;SDS011;1974;48.670;8.994;2023-04-08T13:55:29;6.40;;;3.57;;
3918;SDS011;1974;48.670;8.994;2023-04-08T13:57:56;3.03;;;2.53;;
3918;SDS011;1974;48.670;8.994;2023-04-08T14:00:22;5.00;;;3.60;;
3918;SDS011;1974;48.670;8.994;2023-04-08T14:02:50;5.37;;;3.07;;
3918;SDS011;1974;48.670;8.994;2023-04-08T14:05:17;4.93;;;2.43;;
3918;SDS011;1974;48.670;8.994;2023-04-08T14:07:44;3.10;;;2.00;;
3918;SDS011;1974;48.670;8.994;2023-04-08T14:10:11;7.17;;;4.53;;
3918;SDS011;1974;48.670;8.994;2023-04-08T14:12:39;9.03;;;3.57;;
3918;SDS011;1974;48.670;8.994;2023-04-08T14:15:07;5.73;;;2.47;;
3918;SDS011;1974;48.670;8.994;2023-04-08T14:17:34;4.40;;;2.83;;
3918;SDS011;1974;48.670;8.994;2023-04-08T14:20:01;4.20;;;2.60;;
3918;SDS011;1974;48.670;8.994;2023-04-08T14:22:29;5.90;;;3.40;;
3918;SDS011;1974;48.670;8.994;2023-04-08T14:24:56;6.03;;;3.37;;
3918;SDS011;1974;48.670;8.994;2023-04-08T14:27:22;4.90;;;3.60;;
3918;SDS011;1974;48.670;8.994;2023-04-08T14:29:51;8.53;;;3.10;;
3918;SDS011;1974;48.670;8.994;2023-04-08T14:32:17;6.97;;;3.00;;
3918;SDS011;1974;48.670;8.994;2023-04-08T14:34:44;5.40;;;3.53;;
3918;SDS011;1974;48.670;8.994;2023-04-08T14:37:11;3.50;;;2.37;;
3918;SDS011;1974;48.670;8.994;2023-04-08T14:39:37;7.20;;;2.43;;
3918;SDS011;1974;48.670;8.994;2023-04-08T14:42:04;5.47;;;2.97;;
3918;SDS011;1974;48.670;8.994;2023-04-08T14:44:31;2.63;;;2.13;;
3918;SDS011;1974;48.670;8.994;2023-04-08T14:46:59;6.73;;;3.60;;
3918;SDS011;1974;48.670;8.994;2023-04-08T14:49:26;14.53;;;3.80;;
3918;SDS011;1974;48.670;8.994;2023-04-08T14:51:54;7.33;;;4.37;;
3918;SDS011;1974;48.670;8.994;2023-04-08T14:54:25;8.40;;;3.63;;
3918;SDS011;1974;48.670;8.994;2023-04-08T14:56:53;3.80;;;3.03;;
3918;SDS011;1974;48.670;8.994;2023-04-08T14:59:20;3.80;;;2.70;;
3918;SDS011;1974;48.670;8.994;2023-04-08T15:01:46;2.90;;;2.47;;
3918;SDS011;1974;48.670;8.994;2023-04-08T15:04:14;2.90;;;2.50;;
3918;SDS011;1974;48.670;8.994;2023-04-08T15:06:41;3.23;;;2.40;;
3918;SDS011;1974;48.670;8.994;2023-04-08T15:09:08;4.53;;;2.17;;
3918;SDS011;1974;48.670;8.994;2023-04-08T15:11:35;7.07;;;2.40;;
3918;SDS011;1974;48.670;8.994;2023-04-08T15:14:02;8.70;;;4.00;;
3918;SDS011;1974;48.670;8.994;2023-04-08T15:16:28;8.27;;;3.33;;
3918;SDS011;1974;48.670;8.994;2023-04-08T15:18:55;5.83;;;3.57;;
3918;SDS011;1974;48.670;8.994;2023-04-08T15:21:25;4.47;;;2.93;;
3918;SDS011;1974;48.670;8.994;2023-04-08T15:23:52;4.07;;;2.30;;